CST,Max TemperatureF,Mean TemperatureF,Min TemperatureF,Max Dew PointF,MeanDew PointF,Min DewpointF,Max Humidity, Mean Humidity, Min Humidity, Max Sea Level PressureIn, Mean Sea Level PressureIn, Min Sea Level PressureIn, Max VisibilityMiles, Mean VisibilityMiles, Min VisibilityMiles, Max Wind SpeedMPH, Mean Wind SpeedMPH, Max Gust SpeedMPH,PrecipitationIn, CloudCover, Events, WindDirDegrees
2013-1-1,28,22,17,21,19,16,100,88,74,30.28,30.21,30.10,10,10,10,15,8,21,0.00,5,,341
2013-1-2,37,27,17,27,21,16,100,83,60,30.34,30.24,30.19,10,10,10,10,7,16,0.00,0,,282
2013-1-3,37,26,15,21,18,12,100,77,45,30.46,30.38,30.33,10,10,10,10,5,,0.00,0,,250
2013-1-4,37,28,19,30,25,18,93,81,60,30.37,30.27,30.14,10,10,2,20,11,23,0.00,4,Snow,220
2013-1-5,44,34,24,28,23,14,93,68,37,30.37,30.19,30.08,10,10,10,20,10,25,0.00,0,,284
2013-1-6,51,36,21,27,23,19,93,69,30,30.42,30.32,30.22,10,10,10,15,10,18,0.00,0,,217
2013-1-7,53,40,26,28,24,21,80,58,33,30.22,30.08,29.96,10,10,10,18,10,24,0.00,0,,210
2013-1-8,57,44,30,32,28,23,81,63,36,30.18,29.98,29.92,10,10,10,16,9,25,0.00,0,,235
2013-1-9,51,38,26,37,29,23,100,72,38,30.38,30.26,30.12,10,10,3,17,7,22,0.14,3,Rain,23
2013-1-10,42,38,35,41,38,36,100,95,81,30.16,29.87,29.70,10,8,2,16,6,20,0.08,6,Rain,230
2013-1-11,62,48,32,37,29,12,81,50,29,29.87,29.66,29.55,10,10,10,37,18,52,0.00,0,,234
2013-1-12,32,23,14,27,19,10,100,77,51,30.07,29.98,29.87,10,8,0,18,8,22,0.00,6,Snow,22
2013-1-13,28,19,10,16,12,7,92,76,55,30.25,30.19,30.09,10,10,10,8,4,,0.00,2,,32
2013-1-14,32,23,14,19,14,12,100,72,44,30.32,30.25,30.19,10,10,10,9,2,,0.00,3,,112
2013-1-15,32,23,14,21,17,12,100,77,60,30.23,30.20,30.17,10,10,10,10,2,,0.00,2,,265
2013-1-16,53,36,19,30,25,18,93,69,38,30.33,30.19,30.11,10,10,10,15,9,20,0.00,2,,272
2013-1-17,51,38,26,32,27,21,93,69,38,30.54,30.44,30.33,10,10,10,14,6,,0.00,0,,225
2013-1-18,60,46,32,32,29,27,87,57,27,30.40,30.23,30.08,10,10,10,30,13,37,0.00,0,,222
2013-1-19,62,45,28,28,23,18,86,53,18,30.26,30.15,30.05,10,10,10,15,7,20,0.00,0,,281
2013-1-20,62,43,24,30,24,16,87,57,16,30.30,30.18,30.06,10,10,10,16,8,23,0.00,0,,273
2013-1-21,46,32,19,28,22,14,93,71,39,30.38,30.28,30.17,10,10,10,13,6,17,0.00,0,,303
2013-1-22,62,43,24,28,25,21,93,61,22,30.18,30.13,30.07,10,10,10,14,6,18,0.00,0,,209
2013-1-23,71,46,21,28,26,19,100,61,16,30.22,30.15,30.07,10,10,10,10,5,,0.00,0,,235
2013-1-24,35,30,26,32,27,23,100,87,80,30.25,30.15,30.05,10,8,4,12,6,,0.00,3,,49
2013-1-25,57,40,23,30,27,23,100,68,27,30.25,30.17,30.07,10,8,4,9,4,,0.00,0,,91
2013-1-26,62,46,30,36,30,27,87,59,31,30.17,30.04,29.89,10,10,7,28,8,37,0.00,2,,180
2013-1-27,75,60,44,46,37,32,93,51,21,29.91,29.81,29.73,10,10,10,33,16,43,0.00,0,,221
2013-1-28,73,57,41,36,32,27,76,41,18,29.85,29.77,29.67,10,10,10,36,13,43,0.00,0,,222
2013-1-29,55,42,30,36,31,25,100,67,38,29.81,29.65,29.55,10,10,2,23,11,30,0.00,6,Snow,317
2013-1-30,42,33,24,23,19,12,80,58,29,30.08,29.98,29.82,10,10,10,21,13,28,0.00,0,,276
2013-1-31,55,38,21,27,21,18,86,57,23,30.29,30.12,29.99,10,10,10,18,7,23,0.00,0,,164